createdAt,value
2023-02-03T00:00:22.225Z,1.20
2023-02-03T00:02:27.001Z,0.98
2023-02-03T00:04:31.790Z,1.25
2023-02-03T00:06:36.704Z,1.10
2023-02-03T00:08:41.725Z,1.33
2023-02-03T00:10:46.774Z,1.10
2023-02-03T00:12:56.336Z,1.02
2023-02-03T00:15:01.161Z,1.20
2023-02-03T00:17:05.955Z,1.52
2023-02-03T00:19:10.628Z,1.13
2023-02-03T00:21:15.508Z,1.17
2023-02-03T00:23:20.245Z,1.50
2023-02-03T00:25:25.133Z,0.95
2023-02-03T00:27:29.832Z,1.08
2023-02-03T00:29:37.164Z,0.80
2023-02-03T00:31:42.030Z,1.63
2023-02-03T00:33:46.984Z,1.45
2023-02-03T00:35:51.825Z,1.52
2023-02-03T00:37:57.965Z,1.60
2023-02-03T00:40:02.674Z,1.63
2023-02-03T00:42:08.709Z,1.50
2023-02-03T00:44:13.515Z,1.38
2023-02-03T00:46:20.987Z,1.80
2023-02-03T00:48:25.740Z,1.88
2023-02-03T00:50:30.597Z,1.33
2023-02-03T00:52:35.531Z,1.40
2023-02-03T00:54:40.381Z,1.58
2023-02-03T00:56:45.758Z,1.50
2023-02-03T00:58:50.615Z,1.50
2023-02-03T01:00:58.371Z,2.10
2023-02-03T01:03:05.961Z,1.35
2023-02-03T01:05:11.439Z,1.42
2023-02-03T01:07:16.236Z,2.17
2023-02-03T01:09:20.922Z,1.42
2023-02-03T01:11:27.315Z,1.70
2023-02-03T01:13:32.089Z,1.30
2023-02-03T01:15:37.133Z,1.38
2023-02-03T01:17:41.902Z,1.40
2023-02-03T01:19:49.200Z,1.50
2023-02-03T01:21:54.644Z,1.48
2023-02-03T01:24:02.154Z,1.85
2023-02-03T01:26:08.689Z,1.27
2023-02-03T01:28:13.888Z,1.42
2023-02-03T01:30:19.045Z,1.77
2023-02-03T01:32:25.031Z,1.48
2023-02-03T01:34:29.730Z,1.30
2023-02-03T01:36:38.334Z,1.45
2023-02-03T01:38:43.182Z,1.90
2023-02-03T01:40:48.666Z,1.52
2023-02-03T01:42:53.362Z,1.42
2023-02-03T01:44:58.585Z,1.73
2023-02-03T01:47:03.552Z,1.52
2023-02-03T01:49:12.269Z,1.33
2023-02-03T01:51:16.969Z,1.48
2023-02-03T01:53:24.798Z,1.63
2023-02-03T01:55:33.120Z,1.23
2023-02-03T01:57:42.919Z,1.30
2023-02-03T01:59:48.592Z,1.48
2023-02-03T02:01:54.959Z,1.30
2023-02-03T02:04:02.335Z,1.20
2023-02-03T02:06:09.138Z,1.35
2023-02-03T02:08:15.739Z,1.70
2023-02-03T02:10:23.436Z,1.30
2023-02-03T02:12:28.083Z,1.50
2023-02-03T02:14:34.116Z,1.25
2023-02-03T02:16:48.627Z,1.80
2023-02-03T02:19:06.250Z,1.05
2023-02-03T02:21:37.213Z,1.25
2023-02-03T02:24:10.854Z,1.08
2023-02-03T02:26:41.654Z,1.02
2023-02-03T02:29:15.712Z,1.50
2023-02-03T02:31:52.874Z,1.00
2023-02-03T02:34:06.627Z,1.10
2023-02-03T02:36:24.403Z,1.30
2023-02-03T02:38:41.061Z,1.15
2023-02-03T02:40:53.476Z,1.52
2023-02-03T02:43:08.054Z,1.50
2023-02-03T02:45:26.483Z,1.50
2023-02-03T02:47:32.445Z,1.17
2023-02-03T02:49:45.457Z,0.95
2023-02-03T02:51:51.762Z,1.10
2023-02-03T02:53:59.514Z,1.30
2023-02-03T02:56:10.643Z,1.10
2023-02-03T02:58:19.387Z,1.15
2023-02-03T03:00:25.739Z,2.03
2023-02-03T03:02:35.689Z,1.20
2023-02-03T03:04:48.499Z,1.15
2023-02-03T03:07:00.493Z,1.35
2023-02-03T03:09:08.772Z,1.15
2023-02-03T03:11:17.285Z,1.38
2023-02-03T03:13:28.373Z,1.20
2023-02-03T03:15:36.353Z,0.88
2023-02-03T03:17:51.791Z,1.33
2023-02-03T03:20:03.802Z,1.23
2023-02-03T03:22:10.501Z,1.08
2023-02-03T03:24:27.237Z,1.50
2023-02-03T03:26:38.166Z,1.55
2023-02-03T03:28:49.667Z,1.20
2023-02-03T03:30:55.201Z,1.00
2023-02-03T03:33:00.759Z,1.17
2023-02-03T03:35:09.786Z,1.23
2023-02-03T03:37:21.027Z,1.10
2023-02-03T03:39:31.311Z,1.20
2023-02-03T03:41:44.108Z,1.13
2023-02-03T03:43:51.513Z,1.05
2023-02-03T03:46:01.252Z,1.25
2023-02-03T03:48:12.366Z,1.15
2023-02-03T03:50:24.940Z,1.08
2023-02-03T03:52:34.909Z,1.02
2023-02-03T03:54:41.813Z,1.02
2023-02-03T03:57:01.476Z,2.03
2023-02-03T03:59:08.638Z,1.33
2023-02-03T04:01:14.938Z,1.17
2023-02-03T04:03:23.603Z,1.55
2023-02-03T04:05:31.313Z,1.00
2023-02-03T04:07:41.449Z,1.63
2023-02-03T04:09:46.343Z,1.40
2023-02-03T04:12:06.666Z,1.10
2023-02-03T04:14:11.740Z,1.30
2023-02-03T04:16:16.508Z,1.27
2023-02-03T04:18:21.348Z,1.23
2023-02-03T04:20:26.943Z,1.05
2023-02-03T04:22:34.594Z,0.95
2023-02-03T04:24:39.301Z,0.82
2023-02-03T04:26:44.233Z,1.33
2023-02-03T04:28:48.907Z,0.98
2023-02-03T04:30:53.639Z,1.17
2023-02-03T04:32:58.361Z,1.02
2023-02-03T04:35:03.189Z,1.20
2023-02-03T04:37:07.951Z,1.00
2023-02-03T04:39:15.370Z,1.23
2023-02-03T04:41:20.559Z,1.00
2023-02-03T04:43:25.345Z,1.17
2023-02-03T04:45:30.102Z,1.35
2023-02-03T04:47:34.895Z,1.23
2023-02-03T04:49:39.625Z,1.00
2023-02-03T04:51:44.484Z,1.45
2023-02-03T04:53:49.257Z,1.10
2023-02-03T04:55:56.635Z,1.15
2023-02-03T04:58:02.619Z,1.05
2023-02-03T05:00:08.958Z,1.10
2023-02-03T05:02:14.004Z,0.98
2023-02-03T05:04:18.898Z,1.60
2023-02-03T05:06:27.063Z,0.88
2023-02-03T05:08:32.312Z,1.20
2023-02-03T05:10:37.014Z,1.13
2023-02-03T05:12:44.332Z,1.08
2023-02-03T05:14:49.058Z,1.70
2023-02-03T05:16:54.119Z,1.00
2023-02-03T05:18:58.908Z,1.10
2023-02-03T05:21:03.684Z,1.20
2023-02-03T05:23:08.374Z,1.20
2023-02-03T05:25:13.399Z,1.08
2023-02-03T05:27:18.502Z,1.15
2023-02-03T05:29:25.873Z,1.17
2023-02-03T05:31:30.624Z,0.90
2023-02-03T05:33:35.564Z,1.08
2023-02-03T05:35:40.249Z,1.15
2023-02-03T05:37:47.109Z,0.90
2023-02-03T05:39:51.929Z,1.08
2023-02-03T05:41:57.126Z,1.08
2023-02-03T05:44:02.777Z,1.20
2023-02-03T05:46:10.867Z,1.23
2023-02-03T05:48:15.597Z,0.93
2023-02-03T05:50:20.710Z,1.00
2023-02-03T05:52:26.746Z,1.05
2023-02-03T05:54:31.805Z,1.00
2023-02-03T05:56:36.508Z,0.98
2023-02-03T05:58:41.186Z,1.02
2023-02-03T06:00:45.990Z,0.80
2023-02-03T06:02:57.408Z,1.20
2023-02-03T06:05:02.377Z,1.20
2023-02-03T06:07:07.278Z,2.92
2023-02-03T06:09:12.210Z,2.47
2023-02-03T06:11:16.954Z,2.33
2023-02-03T06:13:21.586Z,2.20
2023-02-03T06:15:26.339Z,1.48
2023-02-03T06:17:31.170Z,1.35
2023-02-03T06:19:38.574Z,1.52
2023-02-03T06:21:43.295Z,1.42
2023-02-03T06:23:48.031Z,0.93
2023-02-03T06:25:53.645Z,0.88
2023-02-03T06:27:58.404Z,1.23
2023-02-03T06:30:03.341Z,1.15
2023-02-03T06:32:08.225Z,1.00
2023-02-03T06:34:13.043Z,1.00
2023-02-03T06:36:20.457Z,1.50
2023-02-03T06:38:25.551Z,1.50
2023-02-03T06:40:30.846Z,1.40
2023-02-03T06:42:36.070Z,1.80
2023-02-03T06:44:41.224Z,1.45
2023-02-03T06:46:46.161Z,1.55
2023-02-03T06:48:50.890Z,1.20
2023-02-03T06:50:55.808Z,1.30
2023-02-03T06:53:03.134Z,1.33
2023-02-03T06:55:09.825Z,1.52
2023-02-03T06:57:14.650Z,1.25
2023-02-03T06:59:19.503Z,1.95
2023-02-03T07:01:26.080Z,1.35
2023-02-03T07:03:31.010Z,1.30
2023-02-03T07:05:36.981Z,1.20
2023-02-03T07:07:41.942Z,1.25
2023-02-03T07:09:49.238Z,1.00
2023-02-03T07:11:53.935Z,1.25
2023-02-03T07:13:58.642Z,1.05
2023-02-03T07:16:03.355Z,1.20
2023-02-03T07:18:08.234Z,1.10
2023-02-03T07:20:14.139Z,1.30
2023-02-03T07:22:19.040Z,1.27
2023-02-03T07:24:23.746Z,1.20
2023-02-03T07:26:31.107Z,2.60
2023-02-03T07:28:36.328Z,1.73
2023-02-03T07:30:41.177Z,1.52
2023-02-03T07:32:49.916Z,1.55
2023-02-03T07:34:54.663Z,1.88
2023-02-03T07:37:00.063Z,1.60
2023-02-03T07:39:04.942Z,1.38
2023-02-03T07:41:10.073Z,1.73
2023-02-03T07:43:17.958Z,1.20
2023-02-03T07:45:24.961Z,1.30
2023-02-03T07:47:30.384Z,1.52
2023-02-03T07:49:35.512Z,1.40
2023-02-03T07:51:40.509Z,2.08
2023-02-03T07:53:45.208Z,1.40
2023-02-03T07:55:50.001Z,1.90
2023-02-03T07:57:56.705Z,1.52
2023-02-03T08:00:04.158Z,1.45
2023-02-03T08:02:17.313Z,1.38
2023-02-03T08:04:22.245Z,1.55
2023-02-03T08:06:26.894Z,1.30
2023-02-03T08:08:32.034Z,1.20
2023-02-03T08:10:37.646Z,1.27
2023-02-03T08:12:45.070Z,1.05
2023-02-03T08:14:50.004Z,1.00
2023-02-03T08:16:57.363Z,1.20
2023-02-03T08:19:02.024Z,0.88
2023-02-03T08:21:07.273Z,0.90
2023-02-03T08:23:12.658Z,1.13
2023-02-03T08:25:17.674Z,0.80
2023-02-03T08:27:24.500Z,1.20
2023-02-03T08:29:29.200Z,0.70
2023-02-03T08:31:34.266Z,1.85
2023-02-03T08:33:41.744Z,0.75
2023-02-03T08:35:50.229Z,1.05
2023-02-03T08:37:55.824Z,1.25
2023-02-03T08:40:00.923Z,1.33
2023-02-03T08:42:05.870Z,1.02
2023-02-03T08:44:10.832Z,1.23
2023-02-03T08:46:16.953Z,0.60
2023-02-03T08:48:21.778Z,1.02
2023-02-03T08:50:29.519Z,1.00
2023-02-03T08:52:34.474Z,0.93
2023-02-03T08:54:39.704Z,0.73
2023-02-03T08:56:44.687Z,1.00
2023-02-03T08:58:49.660Z,0.80
2023-02-03T09:00:55.595Z,0.77
2023-02-03T09:03:00.457Z,0.80
2023-02-03T09:05:05.322Z,0.80
2023-02-03T09:07:13.466Z,0.85
2023-02-03T09:09:18.436Z,1.10
2023-02-03T09:11:23.171Z,1.27
2023-02-03T09:13:28.076Z,1.05
2023-02-03T09:15:32.857Z,1.88
2023-02-03T09:17:37.600Z,0.80
2023-02-03T09:19:42.478Z,1.08
2023-02-03T09:21:49.240Z,1.17
2023-02-03T09:23:57.293Z,1.00
2023-02-03T09:26:04.908Z,1.02
2023-02-03T09:28:09.924Z,0.70
2023-02-03T09:30:17.077Z,1.08
2023-02-03T09:32:22.327Z,0.93
2023-02-03T09:34:27.383Z,0.82
2023-02-03T09:36:32.375Z,0.90
2023-02-03T09:38:38.068Z,0.73
2023-02-03T09:40:45.470Z,1.02
2023-02-03T09:43:11.439Z,0.75
2023-02-03T09:45:24.033Z,0.75
2023-02-03T09:47:33.499Z,0.98
2023-02-03T09:49:42.584Z,1.00
2023-02-03T09:51:52.390Z,0.93
2023-02-03T09:54:02.771Z,1.25
2023-02-03T09:56:21.209Z,1.08
2023-02-03T09:58:26.495Z,1.20
2023-02-03T10:00:35.101Z,0.52
2023-02-03T10:02:53.080Z,0.80
2023-02-03T10:05:03.113Z,1.00
2023-02-03T10:07:20.220Z,1.20
2023-02-03T10:09:42.447Z,0.85
2023-02-03T10:12:04.937Z,0.90
2023-02-03T10:14:25.746Z,0.80
2023-02-03T10:16:44.947Z,0.60
2023-02-03T10:18:53.925Z,0.93
2023-02-03T10:21:02.806Z,0.70
2023-02-03T10:23:14.746Z,0.82
2023-02-03T10:25:25.112Z,0.90
2023-02-03T10:27:34.080Z,1.20
2023-02-03T10:29:45.343Z,1.00
2023-02-03T10:31:50.505Z,0.95
2023-02-03T10:34:02.319Z,0.77
2023-02-03T10:36:18.185Z,0.73
2023-02-03T10:38:34.127Z,1.27
2023-02-03T10:40:40.057Z,1.45
2023-02-03T10:43:02.498Z,0.98
2023-02-03T10:45:08.178Z,1.20
2023-02-03T10:47:24.980Z,0.82
2023-02-03T10:49:31.763Z,0.73
2023-02-03T10:51:40.432Z,0.95
2023-02-03T10:53:46.383Z,0.73
2023-02-03T10:55:55.009Z,1.00
2023-02-03T10:58:16.515Z,1.05
2023-02-03T11:00:30.857Z,1.10
2023-02-03T11:02:35.760Z,1.00
2023-02-03T11:04:40.601Z,1.60
2023-02-03T11:06:58.019Z,0.93
2023-02-03T11:09:03.920Z,1.20
2023-02-03T11:11:11.342Z,1.40
2023-02-03T11:13:22.098Z,1.20
2023-02-03T11:15:27.096Z,1.02
2023-02-03T11:17:34.600Z,0.90
2023-02-03T11:19:42.200Z,0.80
2023-02-03T11:21:50.750Z,1.00
2023-02-03T11:24:00.155Z,1.17
2023-02-03T11:26:14.639Z,1.20
2023-02-03T11:28:22.217Z,1.08
2023-02-03T11:30:30.580Z,0.80
2023-02-03T11:32:38.269Z,0.88
2023-02-03T11:34:49.030Z,0.60
2023-02-03T11:36:53.978Z,0.90
2023-02-03T11:39:24.151Z,0.50
2023-02-03T11:41:28.830Z,0.68
2023-02-03T11:43:36.256Z,0.80
2023-02-03T11:45:44.616Z,0.50
2023-02-03T11:47:53.747Z,0.63
2023-02-03T11:50:10.939Z,0.60
2023-02-03T11:52:35.320Z,0.93
2023-02-03T11:54:46.896Z,0.77
2023-02-03T11:57:13.951Z,0.70
2023-02-03T12:00:03.482Z,0.50
2023-02-03T12:02:39.963Z,0.60
2023-02-03T12:05:12.243Z,0.77
2023-02-03T12:07:48.905Z,0.65
2023-02-03T12:09:59.670Z,1.42
2023-02-03T12:12:24.680Z,0.50
2023-02-03T12:14:45.913Z,1.10
2023-02-03T12:17:09.863Z,1.73
2023-02-03T12:19:23.141Z,0.98
2023-02-03T12:23:59.184Z,0.70
2023-02-03T12:26:17.141Z,0.68
2023-02-03T12:28:42.602Z,0.65
2023-02-03T12:30:52.315Z,0.93
2023-02-03T12:33:00.964Z,0.90
2023-02-03T12:35:19.325Z,0.70
2023-02-03T12:37:33.462Z,0.80
2023-02-03T12:39:45.932Z,0.98
2023-02-03T12:41:55.422Z,2.03
2023-02-03T12:44:04.722Z,1.02
2023-02-03T12:46:17.197Z,0.88
2023-02-03T12:48:26.571Z,0.63
2023-02-03T12:50:37.210Z,0.80
2023-02-03T12:52:50.495Z,0.93
2023-02-03T12:55:02.642Z,0.95
2023-02-03T12:57:18.809Z,0.70
2023-02-03T12:59:28.440Z,1.08
2023-02-03T13:01:38.296Z,2.70
2023-02-03T13:03:48.706Z,1.17
2023-02-03T13:06:00.960Z,1.17
2023-02-03T13:08:17.786Z,2.97
2023-02-03T13:10:29.783Z,3.80
2023-02-03T13:12:41.177Z,3.35
2023-02-03T13:14:50.494Z,1.52
2023-02-03T13:17:00.378Z,1.13
2023-02-03T13:19:09.020Z,0.75
2023-02-03T13:21:14.834Z,1.00
2023-02-03T13:23:22.745Z,0.60
2023-02-03T13:25:34.301Z,0.77
2023-02-03T13:27:45.725Z,0.77
2023-02-03T13:30:07.759Z,0.82
2023-02-03T13:32:27.229Z,0.70
2023-02-03T13:34:52.664Z,0.82
2023-02-03T13:37:15.992Z,0.73
2023-02-03T13:39:42.864Z,0.68
2023-02-03T13:41:51.134Z,0.77
2023-02-03T13:43:57.783Z,0.70
2023-02-03T13:46:03.450Z,0.73
2023-02-03T13:48:13.938Z,0.80
2023-02-03T13:50:25.669Z,1.00
2023-02-03T13:52:37.185Z,1.40
2023-02-03T13:54:47.302Z,0.90
2023-02-03T13:56:58.363Z,1.17
2023-02-03T13:59:07.180Z,0.82
2023-02-03T14:01:33.464Z,0.70
2023-02-03T14:03:48.655Z,0.75
2023-02-03T14:05:55.113Z,0.52
2023-02-03T14:07:59.988Z,0.90
2023-02-03T14:10:19.329Z,0.40
2023-02-03T14:13:02.428Z,0.63
2023-02-03T14:15:31.489Z,0.63
2023-02-03T14:18:26.960Z,0.70
2023-02-03T14:20:54.524Z,0.70
2023-02-03T14:23:02.262Z,0.65
2023-02-03T14:25:09.829Z,0.88
2023-02-03T14:27:26.199Z,0.77
2023-02-03T14:29:32.929Z,0.70
2023-02-03T14:31:57.188Z,0.70
2023-02-03T14:34:17.155Z,0.70
2023-02-03T14:36:38.160Z,0.90
2023-02-03T14:38:44.578Z,1.23
2023-02-03T14:40:56.906Z,1.08
2023-02-03T14:43:34.864Z,1.00
2023-02-03T14:46:02.513Z,0.75
2023-02-03T14:48:23.791Z,1.40
2023-02-03T14:50:46.264Z,0.50
2023-02-03T14:53:12.775Z,0.60
2023-02-03T14:55:31.296Z,0.50
2023-02-03T14:57:43.916Z,0.60
2023-02-03T14:59:57.532Z,0.40
2023-02-03T15:04:27.375Z,1.02
2023-02-03T15:06:42.752Z,0.40
2023-02-03T15:08:49.002Z,1.02
2023-02-03T15:10:53.767Z,0.57
2023-02-03T15:13:00.860Z,0.98
2023-02-03T15:15:24.266Z,1.30
2023-02-03T15:17:31.425Z,0.60
2023-02-03T15:19:38.257Z,0.80
2023-02-03T15:21:44.932Z,0.90
2023-02-03T15:23:52.158Z,0.98
2023-02-03T15:25:58.063Z,1.25
2023-02-03T15:28:17.148Z,0.88
2023-02-03T15:30:28.503Z,0.70
2023-02-03T15:32:37.952Z,0.90
2023-02-03T15:34:46.600Z,1.00
2023-02-03T15:36:54.646Z,0.80
2023-02-03T15:39:05.013Z,0.90
2023-02-03T15:41:13.921Z,0.65
2023-02-03T15:43:22.206Z,0.93
2023-02-03T15:45:32.924Z,1.00
2023-02-03T15:47:44.472Z,0.60
2023-02-03T15:49:53.201Z,0.85
2023-02-03T15:52:02.442Z,1.80
2023-02-03T15:54:14.610Z,1.65
2023-02-03T15:56:27.552Z,1.13
2023-02-03T15:58:36.219Z,1.08
2023-02-03T16:00:44.075Z,1.60
2023-02-03T16:02:49.687Z,1.40
2023-02-03T16:04:55.005Z,1.30
2023-02-03T16:07:00.748Z,1.55
2023-02-03T16:09:07.104Z,0.80
2023-02-03T16:11:26.434Z,0.68
2023-02-03T16:13:33.485Z,0.82
2023-02-03T16:15:39.149Z,0.65
2023-02-03T16:17:46.505Z,0.52
2023-02-03T16:19:51.405Z,0.63
2023-02-03T16:21:59.815Z,0.80
2023-02-03T16:24:05.411Z,0.73
2023-02-03T16:26:21.138Z,0.50
2023-02-03T16:28:38.313Z,0.93
2023-02-03T16:31:07.249Z,0.55
2023-02-03T16:33:33.611Z,0.70
2023-02-03T16:35:50.814Z,0.70
2023-02-03T16:38:08.011Z,1.15
2023-02-03T16:40:26.836Z,0.82
2023-02-03T16:42:53.173Z,0.70
2023-02-03T16:45:10.334Z,0.55
2023-02-03T16:47:39.186Z,0.52
2023-02-03T16:49:59.168Z,0.90
2023-02-03T16:52:06.731Z,0.93
2023-02-03T16:54:17.465Z,0.65
2023-02-03T16:56:22.168Z,0.88
2023-02-03T16:58:27.328Z,0.70
2023-02-03T17:00:32.275Z,0.68
2023-02-03T17:02:36.992Z,0.70
2023-02-03T17:04:41.719Z,0.70
2023-02-03T17:06:51.239Z,0.70
2023-02-03T17:08:57.837Z,0.55
2023-02-03T17:11:09.314Z,0.70
2023-02-03T17:13:14.996Z,0.63
2023-02-03T17:15:20.131Z,0.70
2023-02-03T17:17:24.841Z,0.55
2023-02-03T17:19:29.603Z,0.77
2023-02-03T17:21:34.697Z,0.55
2023-02-03T17:23:42.769Z,0.80
2023-02-03T17:25:48.496Z,0.98
2023-02-03T17:27:53.263Z,0.90
2023-02-03T17:29:58.117Z,0.80
2023-02-03T17:32:02.994Z,0.70
2023-02-03T17:34:07.751Z,0.75
2023-02-03T17:36:15.340Z,0.80
2023-02-03T17:38:20.182Z,0.80
2023-02-03T17:54:22.482Z,0.80
2023-02-03T17:56:29.829Z,1.00
2023-02-03T17:58:34.543Z,0.80
2023-02-03T18:00:39.196Z,0.60
2023-02-03T18:02:44.658Z,0.80
2023-02-03T18:04:49.446Z,0.80
2023-02-03T18:06:54.634Z,0.60
2023-02-03T18:09:01.858Z,0.60
2023-02-03T18:11:07.219Z,0.80
2023-02-03T18:13:14.480Z,0.90
2023-02-03T18:15:19.623Z,0.70
2023-02-03T18:17:24.343Z,1.13
2023-02-03T18:19:29.068Z,1.20
2023-02-03T18:21:37.608Z,1.50
2023-02-03T18:23:42.767Z,1.25
2023-02-03T18:25:47.436Z,0.98
2023-02-03T18:27:53.791Z,0.88
2023-02-03T18:30:01.744Z,0.65
2023-02-03T18:32:06.799Z,1.10
2023-02-03T18:34:11.814Z,0.95
2023-02-03T18:36:18.380Z,0.50
2023-02-03T18:38:23.598Z,0.75
2023-02-03T18:40:28.820Z,0.45
2023-02-03T18:42:33.810Z,0.57
2023-02-03T18:44:39.668Z,0.68
2023-02-03T18:46:46.960Z,0.57
2023-02-03T18:48:51.710Z,0.50
2023-02-03T18:50:56.618Z,0.52
2023-02-03T18:53:01.556Z,0.55
2023-02-03T18:55:06.314Z,0.68
2023-02-03T18:57:13.338Z,0.50
2023-02-03T18:59:18.035Z,0.50
2023-02-03T19:01:25.648Z,0.50
2023-02-03T19:03:32.989Z,0.50
2023-02-03T19:05:37.943Z,0.43
2023-02-03T19:07:42.664Z,0.40
2023-02-03T19:09:47.401Z,0.88
2023-02-03T19:11:52.105Z,0.50
2023-02-03T19:13:56.950Z,0.60
2023-02-03T19:16:02.462Z,0.65
2023-02-03T19:18:07.318Z,0.40
2023-02-03T19:20:16.130Z,0.70
2023-02-03T19:22:20.889Z,0.63
2023-02-03T19:24:26.877Z,0.43
2023-02-03T19:26:31.736Z,0.50
2023-02-03T19:28:36.458Z,0.70
2023-02-03T19:30:41.299Z,0.70
2023-02-03T19:32:46.168Z,0.70
2023-02-03T19:34:50.868Z,0.63
2023-02-03T19:36:59.215Z,0.80
2023-02-03T19:39:03.909Z,0.70
2023-02-03T19:41:09.647Z,0.60
2023-02-03T19:43:14.434Z,0.80
2023-02-03T19:45:19.534Z,0.60
2023-02-03T19:47:24.298Z,0.57
2023-02-03T19:49:29.005Z,1.08
2023-02-03T19:51:33.695Z,0.60
2023-02-03T19:53:40.955Z,0.60
2023-02-03T19:55:46.139Z,0.80
2023-02-03T19:57:50.846Z,1.15
2023-02-03T19:59:56.730Z,0.80
2023-02-03T20:02:12.682Z,0.70
2023-02-03T20:04:18.725Z,0.90
2023-02-03T20:06:23.806Z,0.50
2023-02-03T20:08:28.678Z,0.60
2023-02-03T20:10:36.170Z,0.60
2023-02-03T20:12:40.905Z,0.80
2023-02-03T20:14:45.597Z,0.60
2023-02-03T20:16:51.213Z,0.70
2023-02-03T20:18:56.306Z,0.60
2023-02-03T20:21:01.647Z,0.90
2023-02-03T20:23:06.408Z,0.40
2023-02-03T20:25:12.186Z,0.70
2023-02-03T20:27:20.466Z,0.80
2023-02-03T20:29:25.206Z,0.60
2023-02-03T20:31:29.932Z,0.90
2023-02-03T20:33:35.532Z,0.60
2023-02-03T20:35:41.073Z,0.70
2023-02-03T20:37:45.834Z,0.90
2023-02-03T20:39:50.604Z,0.68
2023-02-03T20:41:55.678Z,1.33
2023-02-03T20:44:02.974Z,1.30
2023-02-03T20:46:13.692Z,0.77
2023-02-03T20:48:20.269Z,0.77
2023-02-03T20:50:40.656Z,0.50
2023-02-03T20:52:46.447Z,0.80
2023-02-03T20:54:51.217Z,0.75
2023-02-03T20:56:56.306Z,0.60
2023-02-03T20:59:03.914Z,0.70
2023-02-03T21:01:16.283Z,0.73
2023-02-03T21:03:35.002Z,0.60
2023-02-03T21:05:41.999Z,0.93
2023-02-03T21:07:46.689Z,0.90
2023-02-03T21:09:51.360Z,0.70
2023-02-03T21:11:56.976Z,0.65
2023-02-03T21:14:06.456Z,0.90
2023-02-03T21:16:20.258Z,0.90
2023-02-03T21:18:35.509Z,0.90
2023-02-03T21:20:40.582Z,0.68
2023-02-03T21:22:45.228Z,1.45
2023-02-03T21:24:53.794Z,0.80
2023-02-03T21:26:59.247Z,0.68
2023-02-03T21:29:06.592Z,0.52
2023-02-03T21:31:21.624Z,0.50
2023-02-03T21:33:35.464Z,0.60
2023-02-03T21:35:40.825Z,0.50
2023-02-03T21:37:45.569Z,0.55
2023-02-03T21:39:51.154Z,0.60
2023-02-03T21:41:55.960Z,2.00
2023-02-03T21:44:01.926Z,0.80
2023-02-03T21:46:13.181Z,0.68
2023-02-03T21:48:32.711Z,0.60
2023-02-03T21:50:40.969Z,0.75
2023-02-03T21:52:45.795Z,0.60
2023-02-03T21:54:50.508Z,0.60
2023-02-03T21:56:55.579Z,0.65
2023-02-03T21:59:00.518Z,0.60
2023-02-03T22:01:09.083Z,0.73
2023-02-03T22:03:21.901Z,0.50
2023-02-03T22:05:27.144Z,0.80
2023-02-03T22:07:32.000Z,0.50
2023-02-03T22:09:36.709Z,0.80
2023-02-03T22:11:41.449Z,0.60
2023-02-03T22:13:46.145Z,0.70
2023-02-03T22:15:51.074Z,0.68
2023-02-03T22:17:58.469Z,0.68
2023-02-03T22:20:03.214Z,0.50
2023-02-03T22:22:07.884Z,0.50
2023-02-03T22:24:12.662Z,0.88
2023-02-03T22:26:18.301Z,0.52
2023-02-03T22:28:23.094Z,0.68
2023-02-03T22:30:27.871Z,0.38
2023-02-03T22:32:32.733Z,0.60
2023-02-03T22:34:40.001Z,0.43
2023-02-03T22:36:44.672Z,0.40
2023-02-03T22:38:49.330Z,0.40
2023-02-03T22:40:55.517Z,0.32
2023-02-03T22:43:00.355Z,0.50
2023-02-03T22:45:05.083Z,0.50
2023-02-03T22:47:09.784Z,0.50
2023-02-03T22:49:14.578Z,0.47
2023-02-03T22:51:21.804Z,0.40
2023-02-03T22:53:26.747Z,0.50
2023-02-03T22:55:31.517Z,0.30
2023-02-03T22:57:38.175Z,0.40
2023-02-03T22:59:42.844Z,0.50
2023-02-03T23:01:47.558Z,0.60
2023-02-03T23:03:52.207Z,0.40
2023-02-03T23:05:56.992Z,0.30
2023-02-03T23:08:04.422Z,0.40
2023-02-03T23:10:11.243Z,0.60
2023-02-03T23:12:15.942Z,0.50
2023-02-03T23:14:20.683Z,0.50
2023-02-03T23:16:25.346Z,0.40
2023-02-03T23:18:30.044Z,0.47
2023-02-03T23:20:36.070Z,0.40
2023-02-03T23:22:40.900Z,0.40
2023-02-03T23:24:48.257Z,0.38
2023-02-03T23:26:52.993Z,0.52
2023-02-03T23:28:57.693Z,0.50
2023-02-03T23:31:03.914Z,0.60
2023-02-03T23:33:08.833Z,0.70
2023-02-03T23:35:26.198Z,0.68
2023-02-03T23:37:31.090Z,0.45
2023-02-03T23:39:35.812Z,0.68
2023-02-03T23:41:43.073Z,0.45
2023-02-03T23:43:47.820Z,0.50
2023-02-03T23:45:52.554Z,0.60
2023-02-03T23:47:57.426Z,0.80
2023-02-03T23:50:02.109Z,0.70
2023-02-03T23:52:07.470Z,0.50
2023-02-03T23:54:12.135Z,0.70
2023-02-03T23:56:16.868Z,0.40
2023-02-03T23:58:24.277Z,1.05
